Time;durP1;ratioP1;P1;durP2;ratioP2;P2;SDS_P1;SDS_P2;PMS_P1;PMS_P2;Temp;Humidity;BMP_temperature;BMP_pressure;BME280_temperature;BME280_humidity;BME280_pressure;Samples;Min_cycle;Max_cycle;Signal;HPM_P1;HPM_P2
2022/08/25 00:00:30;;;;;;;6.20;5.20;;;16.20;99.90;;;;;;5050789;28;20032;-81
2022/08/25 00:02:56;;;;;;;10.63;5.47;;;16.20;99.90;;;;;;5044683;28;20055;-81
2022/08/25 00:05:27;;;;;;;7.65;4.68;;;16.10;99.90;;;;;;5051314;28;20484;-81
2022/08/25 00:07:53;;;;;;;7.03;5.10;;;16.10;99.90;;;;;;5051508;28;20363;-81
2022/08/25 00:10:20;;;;;;;6.88;5.18;;;16.00;99.90;;;;;;5049421;28;20075;-81
2022/08/25 00:12:45;;;;;;;6.60;5.18;;;16.00;99.90;;;;;;5039529;28;20033;-80
2022/08/25 00:15:12;;;;;;;8.00;5.68;;;15.90;99.90;;;;;;5036969;28;20089;-81
2022/08/25 00:17:37;;;;;;;8.52;6.45;;;15.90;99.90;;;;;;5031226;28;20028;-81
2022/08/25 00:20:04;;;;;;;9.18;5.97;;;15.90;99.90;;;;;;5031363;28;20038;-81
2022/08/25 00:22:30;;;;;;;10.77;6.00;;;15.90;99.90;;;;;;5031277;28;20426;-81
2022/08/25 00:24:56;;;;;;;8.80;6.93;;;15.90;99.90;;;;;;5031128;28;20029;-81
2022/08/25 00:27:21;;;;;;;10.70;6.90;;;15.80;99.90;;;;;;5031165;28;20411;-81
2022/08/25 00:29:47;;;;;;;7.93;6.45;;;15.90;99.90;;;;;;5031483;28;20034;-81
2022/08/25 00:32:14;;;;;;;9.55;7.07;;;15.90;99.90;;;;;;5034207;28;20423;-81
2022/08/25 00:34:40;;;;;;;8.57;6.97;;;15.80;99.90;;;;;;5048455;28;20025;-81
2022/08/25 00:37:08;;;;;;;13.35;7.82;;;15.90;99.90;;;;;;5047048;28;20040;-81
2022/08/25 00:39:34;;;;;;;8.98;7.03;;;15.80;99.90;;;;;;5035905;28;20025;-81
2022/08/25 00:42:00;;;;;;;8.63;7.53;;;15.80;99.90;;;;;;5034969;28;20025;-81
2022/08/25 00:44:29;;;;;;;9.10;6.95;;;15.80;99.90;;;;;;5037585;28;20082;-81
2022/08/25 00:46:57;;;;;;;8.93;6.85;;;15.80;99.90;;;;;;5036515;28;20573;-81
2022/08/25 00:49:27;;;;;;;9.27;7.10;;;15.80;99.90;;;;;;5054374;28;20075;-81
2022/08/25 00:52:07;;;;;;;8.57;6.93;;;15.80;99.90;;;;;;5046032;28;20032;-81
2022/08/25 00:54:41;;;;;;;10.63;7.70;;;15.80;99.90;;;;;;5048596;28;20028;-81
2022/08/25 00:57:09;;;;;;;9.35;7.32;;;15.80;99.90;;;;;;5043564;28;20045;-81
2022/08/25 00:59:35;;;;;;;8.40;7.00;;;15.70;99.90;;;;;;5054051;28;20039;-81
2022/08/25 01:02:04;;;;;;;9.65;7.07;;;15.70;99.90;;;;;;5029012;28;20374;-81
2022/08/25 01:04:30;;;;;;;9.77;7.40;;;15.70;99.90;;;;;;5048244;28;20104;-81
2022/08/25 01:06:57;;;;;;;10.05;7.00;;;15.70;99.90;;;;;;5053889;28;20096;-81
2022/08/25 01:09:22;;;;;;;9.07;6.72;;;15.60;99.90;;;;;;5054000;28;20029;-81
2022/08/25 01:11:48;;;;;;;9.25;7.22;;;15.60;99.90;;;;;;5037488;28;20441;-81
2022/08/25 01:14:17;;;;;;;10.00;7.10;;;15.60;99.90;;;;;;5043732;28;20413;-81
2022/08/25 01:16:43;;;;;;;9.43;7.22;;;15.60;99.90;;;;;;5041350;28;20017;-81
2022/08/25 01:19:12;;;;;;;11.55;7.57;;;15.50;99.90;;;;;;5033561;28;20096;-81
2022/08/25 01:21:46;;;;;;;9.02;7.40;;;15.50;99.90;;;;;;5033851;28;20021;-81
2022/08/25 01:24:38;;;;;;;9.50;7.30;;;15.50;99.90;;;;;;5033538;28;20056;-81
2022/08/25 01:27:05;;;;;;;8.73;6.93;;;15.50;99.90;;;;;;5033799;28;20021;-81
2022/08/25 01:29:31;;;;;;;10.02;8.00;;;15.40;99.90;;;;;;5033787;28;20033;-81
2022/08/25 01:32:01;;;;;;;8.88;6.93;;;15.50;99.90;;;;;;5033656;28;20025;-81
2022/08/25 01:34:30;;;;;;;9.90;7.30;;;15.40;99.90;;;;;;5031739;28;20136;-81
2022/08/25 01:36:57;;;;;;;8.38;7.35;;;15.40;99.90;;;;;;5033743;28;20037;-81
2022/08/25 01:39:24;;;;;;;9.18;7.00;;;15.40;99.90;;;;;;5033385;28;20437;-81
2022/08/25 01:42:11;;;;;;;9.45;7.53;;;15.40;99.90;;;;;;5050393;28;20131;-81
2022/08/25 01:44:38;;;;;;;9.23;7.60;;;15.40;99.90;;;;;;5032792;28;20053;-81
2022/08/25 01:47:06;;;;;;;10.18;7.25;;;15.30;99.90;;;;;;5033505;28;20075;-81
2022/08/25 01:49:32;;;;;;;10.43;7.47;;;15.30;99.90;;;;;;5033758;28;20022;-81
2022/08/25 01:52:11;;;;;;;10.20;7.80;;;15.30;99.90;;;;;;5041931;28;20029;-81
2022/08/25 01:54:37;;;;;;;9.25;7.40;;;15.30;99.90;;;;;;5035649;28;20034;-81
2022/08/25 01:57:03;;;;;;;9.95;7.40;;;15.30;99.90;;;;;;5015342;28;20057;-81
2022/08/25 01:59:29;;;;;;;9.23;7.20;;;15.30;99.90;;;;;;5033013;28;20041;-81
2022/08/25 02:01:54;;;;;;;8.45;6.82;;;15.20;99.90;;;;;;5033225;28;20373;-81
2022/08/25 02:04:20;;;;;;;9.35;7.07;;;15.30;99.90;;;;;;5033040;28;20037;-81
2022/08/25 02:06:46;;;;;;;10.73;6.82;;;15.20;99.90;;;;;;5033421;28;20021;-81
2022/08/25 02:09:14;;;;;;;8.63;7.05;;;15.20;99.90;;;;;;5033256;28;20503;-81
2022/08/25 02:11:42;;;;;;;8.40;6.78;;;15.20;99.90;;;;;;5030815;28;20083;-81
2022/08/25 02:14:10;;;;;;;10.40;7.35;;;15.10;99.90;;;;;;5036682;28;20036;-81
2022/08/25 02:16:38;;;;;;;11.93;7.30;;;15.20;99.90;;;;;;5037341;28;20075;-81
2022/08/25 02:19:07;;;;;;;11.32;7.75;;;15.20;99.90;;;;;;5032607;28;20498;-80
2022/08/25 02:21:33;;;;;;;10.57;8.90;;;15.20;99.90;;;;;;5032230;28;20390;-80
2022/08/25 02:24:00;;;;;;;12.50;9.15;;;15.20;99.90;;;;;;5031873;28;20029;-80
2022/08/25 02:26:25;;;;;;;15.52;12.65;;;15.20;99.90;;;;;;5032517;28;20020;-81
2022/08/25 02:28:52;;;;;;;14.32;12.82;;;15.10;99.90;;;;;;5032271;28;20017;-80
2022/08/25 02:31:20;;;;;;;16.05;13.25;;;15.20;99.90;;;;;;5032217;28;20025;-81
2022/08/25 02:33:46;;;;;;;21.85;16.70;;;15.20;99.90;;;;;;5031784;28;20120;-81
2022/08/25 02:36:12;;;;;;;15.35;12.25;;;15.20;99.90;;;;;;5033477;28;20494;-81
2022/08/25 02:38:38;;;;;;;11.00;9.80;;;15.20;99.90;;;;;;5047843;28;20029;-81
2022/08/25 02:41:13;;;;;;;7.70;5.78;;;15.20;99.90;;;;;;5044046;28;20025;-81
2022/08/25 02:43:40;;;;;;;7.65;6.35;;;15.10;99.90;;;;;;5032538;28;20025;-81
2022/08/25 02:46:07;;;;;;;7.95;6.13;;;15.10;99.90;;;;;;5032596;28;20033;-80
2022/08/25 02:48:33;;;;;;;8.73;7.18;;;15.00;99.90;;;;;;5032770;28;20351;-80
2022/08/25 02:51:00;;;;;;;8.10;6.00;;;15.00;99.90;;;;;;5032313;28;20034;-81
2022/08/25 02:53:27;;;;;;;8.02;6.20;;;14.90;99.90;;;;;;5032573;28;20060;-81
2022/08/25 02:55:53;;;;;;;6.47;5.75;;;14.90;99.90;;;;;;5032136;28;20060;-81
2022/08/25 02:58:19;;;;;;;8.95;6.97;;;14.80;99.90;;;;;;5048864;28;20041;-80
2022/08/25 03:00:46;;;;;;;8.38;6.90;;;14.80;99.90;;;;;;5052326;28;20079;-81
2022/08/25 03:03:12;;;;;;;11.82;7.75;;;14.80;99.90;;;;;;5041076;28;20478;-81
2022/08/25 03:05:37;;;;;;;13.82;9.98;;;14.80;99.90;;;;;;5032405;28;20037;-81
2022/08/25 03:08:04;;;;;;;11.88;9.93;;;14.80;99.90;;;;;;5032502;28;20082;-81
2022/08/25 03:10:30;;;;;;;17.38;10.98;;;14.80;99.90;;;;;;5044842;28;20112;-81
2022/08/25 03:12:56;;;;;;;18.33;11.73;;;14.80;99.90;;;;;;5021283;28;20116;-81
2022/08/25 03:15:24;;;;;;;15.35;12.38;;;14.90;99.90;;;;;;5032272;28;20377;-81
2022/08/25 03:17:50;;;;;;;18.45;11.98;;;14.80;99.90;;;;;;5032310;28;20360;-81
2022/08/25 03:20:16;;;;;;;16.98;12.27;;;14.80;99.90;;;;;;5031662;28;20048;-81
2022/08/25 03:22:42;;;;;;;15.27;12.60;;;14.90;99.90;;;;;;5032045;28;20037;-81
2022/08/25 03:27:52;;;;;;;16.80;13.10;;;14.90;99.90;;;;;;5032098;28;20040;-81
2022/08/25 03:30:18;;;;;;;18.80;12.52;;;14.90;99.90;;;;;;5031785;28;20264;-81
2022/08/25 03:32:44;;;;;;;18.17;13.13;;;14.90;99.90;;;;;;5031730;28;20048;-81
2022/08/25 03:35:10;;;;;;;17.40;12.68;;;14.90;99.90;;;;;;5031883;28;20124;-81
2022/08/25 03:37:36;;;;;;;15.85;12.80;;;14.90;99.90;;;;;;5032022;28;20121;-81
2022/08/25 03:40:07;;;;;;;19.80;14.00;;;14.90;99.90;;;;;;5031809;28;20530;-81
2022/08/25 03:42:34;;;;;;;20.20;13.77;;;14.90;99.90;;;;;;5034762;28;20017;-80
2022/08/25 03:45:03;;;;;;;17.77;13.90;;;15.00;99.90;;;;;;5044122;28;20085;-81
2022/08/25 03:47:29;;;;;;;18.80;13.82;;;15.00;99.90;;;;;;5031969;28;20064;-81
2022/08/25 03:49:55;;;;;;;18.63;14.10;;;15.00;99.90;;;;;;5029687;28;20522;-81
2022/08/25 03:52:21;;;;;;;22.17;13.65;;;15.00;99.90;;;;;;5032000;28;20037;-81
2022/08/25 03:54:47;;;;;;;15.57;13.10;;;15.00;99.90;;;;;;5031592;28;20037;-81
2022/08/25 03:57:13;;;;;;;16.38;12.73;;;15.00;99.90;;;;;;5031878;28;20042;-81
2022/08/25 03:59:38;;;;;;;17.48;11.10;;;15.00;99.90;;;;;;5031696;28;20040;-81
2022/08/25 04:02:07;;;;;;;14.20;11.55;;;15.00;99.90;;;;;;5031542;28;20497;-81
2022/08/25 04:04:33;;;;;;;14.88;12.10;;;15.00;99.90;;;;;;5045598;28;20116;-81
2022/08/25 04:06:59;;;;;;;16.10;11.57;;;14.90;99.90;;;;;;5031714;28;20028;-81
2022/08/25 04:09:25;;;;;;;14.60;11.73;;;14.90;99.90;;;;;;5035623;28;20128;-81
2022/08/25 04:11:52;;;;;;;18.25;12.02;;;14.90;99.90;;;;;;5035065;28;20033;-81
2022/08/25 04:14:18;;;;;;;15.57;11.20;;;14.90;99.90;;;;;;5035182;28;20029;-80
2022/08/25 04:16:44;;;;;;;16.88;12.63;;;14.90;99.90;;;;;;5035576;28;20033;-81
2022/08/25 04:19:10;;;;;;;16.08;11.80;;;14.90;99.90;;;;;;5035329;28;20037;-81
2022/08/25 04:21:39;;;;;;;17.35;12.98;;;14.90;99.90;;;;;;5038346;28;20029;-80
2022/08/25 04:24:09;;;;;;;19.15;13.30;;;14.80;99.90;;;;;;5035106;28;20530;-81
2022/08/25 04:26:38;;;;;;;22.48;16.45;;;14.90;99.90;;;;;;5029772;28;20033;-80
2022/08/25 04:29:06;;;;;;;23.00;15.10;;;14.90;99.90;;;;;;5031444;28;20032;-81
2022/08/25 04:31:32;;;;;;;22.23;15.75;;;14.80;99.90;;;;;;5032138;28;20033;-81
2022/08/25 04:34:01;;;;;;;24.90;15.88;;;14.90;99.90;;;;;;5029915;28;20776;-81
2022/08/25 04:36:27;;;;;;;20.80;15.55;;;14.80;99.90;;;;;;5034700;28;20106;-81
2022/08/25 04:38:53;;;;;;;22.83;15.60;;;14.80;99.90;;;;;;5034460;28;20117;-81
2022/08/25 04:41:21;;;;;;;23.13;14.30;;;14.80;99.90;;;;;;5036455;28;20040;-81
2022/08/25 04:43:46;;;;;;;20.42;15.48;;;14.90;99.90;;;;;;5034388;28;20107;-81
2022/08/25 04:46:19;;;;;;;20.85;15.13;;;14.90;99.90;;;;;;5034610;28;20071;-81
2022/08/25 04:48:45;;;;;;;20.30;15.13;;;14.90;99.90;;;;;;5034065;28;20068;-81
2022/08/25 04:51:13;;;;;;;22.63;15.30;;;14.90;99.90;;;;;;5041102;28;20057;-80
2022/08/25 04:53:40;;;;;;;20.50;15.68;;;14.90;99.90;;;;;;5029524;28;20033;-80
2022/08/25 04:56:08;;;;;;;20.83;15.25;;;14.90;99.90;;;;;;5014568;28;20144;-79
2022/08/25 04:58:34;;;;;;;23.52;17.70;;;14.90;99.90;;;;;;5015917;28;20056;-79
2022/08/25 05:01:05;;;;;;;21.33;15.98;;;14.90;99.90;;;;;;5031950;28;20032;-79
2022/08/25 05:03:30;;;;;;;22.25;15.75;;;15.00;99.90;;;;;;5030980;28;20179;-79
2022/08/25 05:05:56;;;;;;;26.20;16.00;;;15.00;99.90;;;;;;5029417;28;20104;-78
2022/08/25 05:08:22;;;;;;;23.38;16.35;;;15.00;99.90;;;;;;5032692;28;20025;-77
2022/08/25 05:10:49;;;;;;;24.48;16.95;;;15.00;99.90;;;;;;5030311;28;20029;-78
2022/08/25 05:13:15;;;;;;;23.27;16.00;;;15.10;99.90;;;;;;5028274;28;20160;-77
2022/08/25 05:15:49;;;;;;;23.90;17.58;;;15.10;99.90;;;;;;5031609;28;20112;-77
2022/08/25 05:18:16;;;;;;;23.35;16.35;;;15.10;99.90;;;;;;5031656;28;20082;-77
2022/08/25 05:20:41;;;;;;;30.98;17.10;;;15.20;99.90;;;;;;5029196;28;20040;-77
2022/08/25 05:23:07;;;;;;;24.65;17.17;;;15.20;99.90;;;;;;5031866;28;20013;-77
2022/08/25 05:25:33;;;;;;;25.50;17.80;;;15.30;99.90;;;;;;5029829;28;20057;-77
2022/08/25 05:27:59;;;;;;;28.70;18.50;;;15.30;99.90;;;;;;5031928;28;20018;-77
2022/08/25 05:30:24;;;;;;;27.67;17.52;;;15.30;99.90;;;;;;5031474;28;20026;-77
2022/08/25 05:32:50;;;;;;;26.00;16.58;;;15.40;99.90;;;;;;5031635;28;20556;-77
2022/08/25 05:35:15;;;;;;;30.90;17.85;;;15.50;99.90;;;;;;5031395;28;20061;-77
2022/08/25 05:37:41;;;;;;;29.63;17.67;;;15.50;99.90;;;;;;5031307;28;20029;-77
2022/08/25 05:40:09;;;;;;;30.88;18.63;;;15.60;99.90;;;;;;5031707;28;20116;-77
2022/08/25 05:42:35;;;;;;;26.38;18.50;;;15.60;99.90;;;;;;5032173;28;20025;-77
2022/08/25 05:45:02;;;;;;;22.33;17.83;;;15.70;99.90;;;;;;5031977;28;20021;-75
2022/08/25 05:47:28;;;;;;;26.27;17.48;;;15.80;99.90;;;;;;5031483;28;20013;-76
2022/08/25 05:49:54;;;;;;;22.42;17.60;;;15.90;99.90;;;;;;5044514;28;20105;-77
2022/08/25 05:52:28;;;;;;;25.27;17.35;;;15.90;99.90;;;;;;5036157;28;20076;-83
2022/08/25 05:54:57;;;;;;;22.57;16.40;;;16.00;99.90;;;;;;5017226;28;20053;-84
2022/08/25 05:57:23;;;;;;;24.80;17.23;;;16.10;99.90;;;;;;5030610;28;20041;-86
2022/08/25 05:59:48;;;;;;;29.75;17.50;;;16.20;99.90;;;;;;5038175;28;20043;-85
2022/08/25 06:04:58;;;;;;;22.42;15.68;;;16.40;99.90;;;;;;5037118;28;20577;-77
2022/08/25 06:07:24;;;;;;;30.13;16.60;;;16.40;99.90;;;;;;5031479;28;20021;-77
2022/08/25 06:09:49;;;;;;;28.02;16.40;;;16.50;99.90;;;;;;5030897;28;20036;-77
2022/08/25 06:12:16;;;;;;;20.40;16.25;;;16.60;99.90;;;;;;5026960;28;20098;-77
2022/08/25 06:14:42;;;;;;;22.15;15.98;;;16.60;99.90;;;;;;5036906;28;20021;-77
2022/08/25 06:17:10;;;;;;;21.02;16.20;;;16.70;99.90;;;;;;5046792;28;20021;-77
2022/08/25 06:19:37;;;;;;;24.73;15.18;;;16.80;99.90;;;;;;5025025;28;20061;-77
2022/08/25 06:22:02;;;;;;;25.10;16.35;;;16.90;99.90;;;;;;5037935;28;20083;-83
2022/08/25 06:24:28;;;;;;;24.13;16.08;;;16.90;99.90;;;;;;5045460;28;20029;-76
2022/08/25 06:26:55;;;;;;;25.13;16.85;;;17.00;99.90;;;;;;5030818;28;20159;-77
2022/08/25 06:29:21;;;;;;;20.05;15.38;;;17.00;99.90;;;;;;5030798;28;20377;-78
2022/08/25 06:31:48;;;;;;;20.30;14.70;;;17.10;99.90;;;;;;5030854;28;20026;-78
2022/08/25 06:34:14;;;;;;;25.60;15.63;;;17.20;99.90;;;;;;5030600;28;20540;-77
2022/08/25 06:36:40;;;;;;;19.33;15.05;;;17.30;99.90;;;;;;5031276;28;20079;-76
2022/08/25 06:39:06;;;;;;;21.85;15.52;;;17.40;99.90;;;;;;5030652;28;20038;-77
2022/08/25 06:41:31;;;;;;;19.77;16.10;;;17.40;99.90;;;;;;5029652;28;20051;-77
2022/08/25 06:43:58;;;;;;;22.92;15.13;;;17.50;99.90;;;;;;5029743;28;20470;-78
2022/08/25 06:46:26;;;;;;;23.33;15.77;;;17.50;99.90;;;;;;5030374;28;20031;-78
2022/08/25 06:48:53;;;;;;;21.35;15.55;;;17.60;99.90;;;;;;5029860;28;20788;-78
2022/08/25 06:51:20;;;;;;;22.95;16.77;;;17.70;99.90;;;;;;5036335;28;20551;-78
2022/08/25 06:53:48;;;;;;;23.48;16.45;;;17.70;99.90;;;;;;5029953;28;20425;-77
2022/08/25 06:56:15;;;;;;;20.77;15.52;;;17.80;99.90;;;;;;5031030;28;20083;-76
2022/08/25 06:58:41;;;;;;;25.17;15.38;;;17.80;99.90;;;;;;5030570;28;20052;-78
2022/08/25 07:01:30;;;;;;;21.00;14.90;;;17.90;99.90;;;;;;5030658;28;20108;-78
2022/08/25 07:03:58;;;;;;;18.73;14.63;;;18.10;99.90;;;;;;5030442;28;20025;-77
2022/08/25 07:06:30;;;;;;;18.77;15.05;;;18.10;99.90;;;;;;5013469;28;20072;-78
2022/08/25 07:08:56;;;;;;;19.85;15.00;;;18.20;99.90;;;;;;5030869;28;20040;-77
2022/08/25 07:11:22;;;;;;;23.92;15.68;;;18.20;99.90;;;;;;5024665;28;20029;-77
2022/08/25 07:13:49;;;;;;;21.27;15.30;;;18.30;99.90;;;;;;5025411;28;20029;-77
2022/08/25 07:16:16;;;;;;;17.90;13.73;;;18.30;99.90;;;;;;5030094;28;20056;-77
2022/08/25 07:18:43;;;;;;;21.70;14.82;;;18.40;99.90;;;;;;5029755;28;20028;-77
2022/08/25 07:21:09;;;;;;;22.10;13.43;;;18.40;99.90;;;;;;5030274;28;20090;-77
2022/08/25 07:23:35;;;;;;;20.88;13.82;;;18.50;99.90;;;;;;5029832;28;20017;-77
2022/08/25 07:26:11;;;;;;;17.42;13.60;;;18.70;99.90;;;;;;5029963;28;20046;-77
2022/08/25 07:28:37;;;;;;;20.65;14.02;;;18.80;99.90;;;;;;5011944;28;20780;-77
2022/08/25 07:31:03;;;;;;;19.73;14.13;;;18.80;99.90;;;;;;5030164;28;20159;-77
2022/08/25 07:33:29;;;;;;;18.00;13.27;;;18.90;99.90;;;;;;5029354;28;20036;-77
2022/08/25 07:35:55;;;;;;;18.17;13.02;;;19.00;99.90;;;;;;5030115;28;20034;-77
2022/08/25 07:38:20;;;;;;;22.45;12.80;;;19.00;99.90;;;;;;5028932;28;20029;-77
2022/08/25 07:40:53;;;;;;;17.42;12.23;;;19.10;99.90;;;;;;5029420;28;20026;-78
2022/08/25 07:43:19;;;;;;;16.35;12.40;;;19.30;99.90;;;;;;5031980;28;20874;-75
2022/08/25 07:45:45;;;;;;;15.50;10.95;;;19.30;99.90;;;;;;5034260;28;20026;-78
2022/08/25 07:48:11;;;;;;;14.48;11.10;;;19.40;99.90;;;;;;5031524;28;20049;-78
2022/08/25 07:50:46;;;;;;;14.35;11.65;;;19.60;99.90;;;;;;5033389;28;20097;-78
2022/08/25 07:53:14;;;;;;;14.07;9.57;;;19.70;99.90;;;;;;5031208;28;20688;-78
2022/08/25 07:55:40;;;;;;;13.55;10.27;;;19.70;99.90;;;;;;5033402;28;20112;-78
2022/08/25 07:58:08;;;;;;;12.82;10.07;;;19.90;99.90;;;;;;5033662;28;20155;-78
2022/08/25 08:00:35;;;;;;;13.40;9.95;;;20.00;99.90;;;;;;5033597;28;20112;-78
2022/08/25 08:03:06;;;;;;;11.48;8.70;;;20.10;99.90;;;;;;5032712;28;20082;-78
2022/08/25 08:05:31;;;;;;;16.20;10.60;;;20.10;99.90;;;;;;5033261;28;20108;-78
2022/08/25 08:07:58;;;;;;;14.02;10.57;;;20.20;99.90;;;;;;5033391;28;20104;-78
2022/08/25 08:10:24;;;;;;;15.73;9.80;;;20.20;99.90;;;;;;5033347;28;20025;-78
2022/08/25 08:12:51;;;;;;;11.32;8.88;;;20.30;99.90;;;;;;5030783;28;20025;-78
2022/08/25 08:15:18;;;;;;;14.05;8.45;;;20.40;99.90;;;;;;5033672;28;20436;-78
2022/08/25 08:17:43;;;;;;;13.23;8.52;;;20.40;99.90;;;;;;5015005;28;20378;-78
2022/08/25 08:20:10;;;;;;;15.80;9.25;;;20.50;99.90;;;;;;5032668;28;20037;-78
2022/08/25 08:22:39;;;;;;;14.00;8.52;;;20.60;99.90;;;;;;5032631;28;20092;-78
2022/08/25 08:25:06;;;;;;;10.02;7.38;;;20.60;99.90;;;;;;5030701;28;20038;-78
2022/08/25 08:27:31;;;;;;;11.57;8.25;;;20.70;99.90;;;;;;5032974;28;20025;-79
2022/08/25 08:29:57;;;;;;;11.43;8.07;;;20.80;99.90;;;;;;5033106;28;20033;-78
2022/08/25 08:32:23;;;;;;;14.05;7.78;;;20.80;99.90;;;;;;5032529;28;20029;-78
2022/08/25 08:34:48;;;;;;;10.68;7.80;;;21.00;99.90;;;;;;5032712;28;20442;-78
2022/08/25 08:37:15;;;;;;;9.18;7.28;;;21.00;99.90;;;;;;5032704;28;20079;-79
2022/08/25 08:39:40;;;;;;;12.57;7.70;;;21.00;99.90;;;;;;5033264;28;20033;-79
2022/08/25 08:42:32;;;;;;;9.77;7.00;;;21.20;99.90;;;;;;5033257;28;20025;-78
2022/08/25 08:45:02;;;;;;;10.93;7.63;;;21.30;99.90;;;;;;5020731;28;20033;-78
2022/08/25 08:47:44;;;;;;;8.48;5.95;;;21.30;99.90;;;;;;5032664;28;20029;-78
2022/08/25 08:50:18;;;;;;;8.15;6.72;;;21.40;99.90;;;;;;5003325;28;20191;-78
2022/08/25 08:53:10;;;;;;;11.38;6.75;;;21.50;99.90;;;;;;5026905;28;20029;-79
2022/08/25 08:55:51;;;;;;;12.65;7.30;;;21.60;99.90;;;;;;5029854;28;20118;-77
2022/08/25 08:58:24;;;;;;;11.05;6.75;;;21.80;99.90;;;;;;5033836;28;20026;-74
2022/08/25 09:00:54;;;;;;;9.98;6.43;;;21.80;99.90;;;;;;5036115;28;20045;-75
2022/08/25 09:03:34;;;;;;;7.65;5.93;;;21.90;99.90;;;;;;5035710;28;20048;-74
2022/08/25 09:06:05;;;;;;;7.55;6.20;;;22.00;99.90;;;;;;5035744;28;20462;-75
2022/08/25 09:08:31;;;;;;;7.97;5.30;;;22.20;99.90;;;;;;5035732;28;20117;-75
2022/08/25 09:11:02;;;;;;;7.90;6.15;;;22.40;99.90;;;;;;5036205;28;20033;-73
2022/08/25 09:13:33;;;;;;;8.05;5.85;;;22.50;99.90;;;;;;5035837;28;20040;-75
2022/08/25 09:19:30;;;;;;;7.28;5.65;;;22.80;99.90;;;;;;5035737;28;20532;-74
2022/08/25 09:22:19;;;;;;;13.05;5.65;;;22.90;99.90;;;;;;5035468;28;20431;-74
2022/08/25 09:25:06;;;;;;;6.70;5.32;;;23.20;99.90;;;;;;5035673;28;20022;-73
2022/08/25 09:27:57;;;;;;;7.97;5.97;;;23.40;99.90;;;;;;5035713;28;20033;-74
2022/08/25 09:30:23;;;;;;;7.60;5.43;;;23.50;99.90;;;;;;5017380;28;20037;-74
2022/08/25 09:33:02;;;;;;;6.80;5.20;;;23.80;99.90;;;;;;5035503;28;20032;-74
2022/08/25 09:35:30;;;;;;;8.27;5.88;;;24.00;99.90;;;;;;5035441;28;20521;-74
2022/08/25 09:37:59;;;;;;;8.90;4.97;;;24.20;99.90;;;;;;5035149;28;20045;-74
2022/08/25 09:40:30;;;;;;;9.15;5.85;;;24.40;99.90;;;;;;5035265;28;20116;-75
2022/08/25 09:42:58;;;;;;;7.82;5.15;;;24.70;99.90;;;;;;5035503;28;20065;-76
2022/08/25 09:45:45;;;;;;;7.50;5.95;;;24.80;99.90;;;;;;5035119;28;20025;-74
2022/08/25 09:48:29;;;;;;;8.48;5.57;;;24.70;99.90;;;;;;5035134;28;20018;-74
2022/08/25 09:51:07;;;;;;;8.70;6.05;;;24.90;99.90;;;;;;5035169;28;20021;-73
2022/08/25 09:53:33;;;;;;;7.28;5.82;;;25.00;99.90;;;;;;5034769;28;20521;-73
2022/08/25 09:56:04;;;;;;;6.22;5.60;;;25.10;99.90;;;;;;5034796;28;20128;-75
2022/08/25 09:58:30;;;;;;;8.23;5.50;;;25.10;99.90;;;;;;5035236;28;20404;-75
2022/08/25 10:01:16;;;;;;;7.47;5.60;;;25.40;99.90;;;;;;5034702;28;20036;-74
2022/08/25 10:04:02;;;;;;;7.10;5.35;;;25.50;99.90;;;;;;5034742;28;20075;-74
2022/08/25 10:06:35;;;;;;;7.90;5.32;;;25.70;99.90;;;;;;5035849;28;20021;-75
2022/08/25 10:09:05;;;;;;;6.95;4.82;;;25.80;99.90;;;;;;5054791;28;20107;-75
2022/08/25 10:11:44;;;;;;;9.30;4.93;;;25.90;99.90;;;;;;5054869;28;20106;-75
2022/08/25 10:14:25;;;;;;;8.70;5.55;;;26.10;99.90;;;;;;5054812;28;20135;-75
2022/08/25 10:16:53;;;;;;;6.60;4.63;;;26.40;99.90;;;;;;5054339;28;20474;-74
2022/08/25 10:19:26;;;;;;;6.25;5.40;;;26.40;99.90;;;;;;5054464;28;20055;-75
2022/08/25 10:22:20;;;;;;;9.30;6.03;;;26.40;99.90;;;;;;5054568;28;20107;-75
2022/08/25 10:24:45;;;;;;;8.23;5.47;;;26.50;99.90;;;;;;5054389;28;20016;-75
2022/08/25 10:27:14;;;;;;;9.70;6.57;;;26.50;99.90;;;;;;5054132;28;20107;-75
2022/08/25 10:29:58;;;;;;;10.15;5.53;;;26.50;99.90;;;;;;5054039;28;20024;-75
2022/08/25 10:33:06;;;;;;;8.05;5.63;;;26.70;99.90;;;;;;5054308;28;20470;-74
2022/08/25 10:35:52;;;;;;;8.27;5.63;;;26.70;99.90;;;;;;5009982;28;20078;-74
2022/08/25 10:38:46;;;;;;;10.13;5.68;;;26.70;99.90;;;;;;5053814;28;20021;-74
2022/08/25 10:41:48;;;;;;;11.45;5.50;;;26.70;99.90;;;;;;5054099;28;20024;-74
2022/08/25 10:47:40;;;;;;;6.75;4.80;;;27.00;99.90;;;;;;5034331;28;20035;-75
2022/08/25 10:50:12;;;;;;;12.55;4.88;;;27.20;99.90;;;;;;5034058;28;20053;-75
2022/08/25 10:52:53;;;;;;;7.15;5.43;;;27.30;99.90;;;;;;5033972;28;20330;-74
2022/08/25 10:55:39;;;;;;;8.55;5.07;;;27.50;99.90;;;;;;5033582;28;20036;-74
2022/08/25 10:58:42;;;;;;;6.53;5.65;;;27.70;99.90;;;;;;5033984;28;20025;-75
2022/08/25 11:01:33;;;;;;;6.20;5.30;;;27.70;99.90;;;;;;5033593;28;20037;-75
2022/08/25 11:04:15;;;;;;;6.25;5.10;;;27.80;99.90;;;;;;5033754;28;20021;-74
2022/08/25 11:06:46;;;;;;;7.10;5.25;;;28.00;99.90;;;;;;5033575;28;20026;-75
2022/08/25 11:09:18;;;;;;;10.93;5.38;;;28.20;99.90;;;;;;5033754;28;20026;-74
2022/08/25 11:11:57;;;;;;;8.00;5.50;;;28.40;99.90;;;;;;5033759;28;20116;-74
2022/08/25 11:14:33;;;;;;;12.52;5.55;;;28.30;99.90;;;;;;5033464;28;20096;-74
2022/08/25 11:17:03;;;;;;;13.02;6.05;;;28.40;99.90;;;;;;5032531;28;20029;-73
2022/08/25 11:19:44;;;;;;;9.00;5.47;;;28.60;99.90;;;;;;5033167;28;20113;-75
2022/08/25 11:22:15;;;;;;;9.65;4.97;;;28.70;99.90;;;;;;5033612;28;20467;-74
2022/08/25 11:25:16;;;;;;;8.73;5.20;;;28.80;99.90;;;;;;5033077;28;20030;-74
2022/08/25 11:27:53;;;;;;;7.88;5.10;;;29.10;99.90;;;;;;5033499;28;20028;-75
2022/08/25 11:30:19;;;;;;;7.22;5.15;;;29.20;99.90;;;;;;5033277;28;20057;-74
2022/08/25 11:32:52;;;;;;;11.48;5.32;;;29.30;99.90;;;;;;5033380;28;20060;-73
2022/08/25 11:35:31;;;;;;;6.75;5.15;;;29.60;99.90;;;;;;5033344;28;20037;-73
2022/08/25 11:38:15;;;;;;;7.93;4.88;;;29.60;99.90;;;;;;5033667;28;20025;-74
2022/08/25 11:41:29;;;;;;;9.37;4.10;;;29.70;99.90;;;;;;5033801;28;20090;-74
2022/08/25 11:44:11;;;;;;;11.32;5.28;;;29.90;99.90;;;;;;4952860;29;20326;-73
2022/08/25 11:46:46;;;;;;;10.90;6.13;;;30.10;99.90;;;;;;4953321;29;20470;-74
2022/08/25 11:49:27;;;;;;;9.55;5.35;;;30.00;99.90;;;;;;5003825;28;20041;-74
2022/08/25 11:51:53;;;;;;;8.00;5.70;;;29.90;99.90;;;;;;5033371;28;20028;-77
2022/08/25 11:54:41;;;;;;;9.23;6.28;;;30.00;99.90;;;;;;5033331;28;20026;-75
2022/08/25 11:57:17;;;;;;;8.82;4.90;;;30.10;99.90;;;;;;5015105;28;20047;-74
2022/08/25 11:59:48;;;;;;;8.15;5.00;;;30.30;99.90;;;;;;5015224;28;20030;-74
2022/08/25 12:02:33;;;;;;;10.02;5.28;;;30.50;99.90;;;;;;5032996;28;20057;-73
2022/08/25 12:04:59;;;;;;;9.65;5.75;;;30.50;99.90;;;;;;5033134;28;20025;-75
2022/08/25 12:10:52;;;;;;;12.18;6.20;;;30.40;99.90;;;;;;5032741;28;20107;-74
2022/08/25 12:13:38;;;;;;;9.52;5.72;;;30.00;99.90;;;;;;5033104;28;20030;-74
2022/08/25 12:16:04;;;;;;;9.23;6.13;;;30.20;99.90;;;;;;5033077;28;20382;-74
2022/08/25 12:18:30;;;;;;;9.68;6.00;;;30.10;99.90;;;;;;5033030;28;20040;-74
2022/08/25 12:20:55;;;;;;;12.00;6.22;;;30.30;99.90;;;;;;5015125;28;20061;-73
2022/08/25 12:23:33;;;;;;;9.73;6.00;;;30.20;99.90;;;;;;5032836;28;20021;-79
2022/08/25 12:26:06;;;;;;;12.63;6.63;;;30.10;99.90;;;;;;5032936;28;20025;-74
2022/08/25 12:28:50;;;;;;;11.63;6.00;;;29.60;99.90;;;;;;5033602;28;20379;-74
2022/08/25 12:31:32;;;;;;;11.38;5.75;;;29.70;99.90;;;;;;5036491;28;20620;-74
2022/08/25 12:34:08;;;;;;;8.68;5.80;;;29.70;99.90;;;;;;5036372;28;20159;-75
2022/08/25 12:36:34;;;;;;;9.45;5.85;;;29.90;99.90;;;;;;5018711;28;20107;-74
2022/08/25 12:39:22;;;;;;;7.28;5.10;;;30.40;99.90;;;;;;5036552;28;20072;-74
2022/08/25 12:41:59;;;;;;;10.65;5.95;;;30.50;99.90;;;;;;5036259;28;20017;-74
2022/08/25 12:44:46;;;;;;;31.88;6.68;;;30.70;99.90;;;;;;5036376;28;20026;-75
2022/08/25 12:47:18;;;;;;;10.48;6.03;;;31.20;99.90;;;;;;5036733;28;20409;-77
2022/08/25 12:49:44;;;;;;;9.50;6.15;;;31.40;99.90;;;;;;5036820;28;20035;-74
2022/08/25 12:52:17;;;;;;;12.70;6.05;;;31.40;99.90;;;;;;5036238;28;20379;-74
2022/08/25 12:54:51;;;;;;;12.30;5.40;;;31.60;99.90;;;;;;5036354;28;20034;-73
2022/08/25 12:57:40;;;;;;;11.13;6.10;;;31.40;99.90;;;;;;5035813;28;20080;-75
2022/08/25 13:00:23;;;;;;;12.70;5.70;;;31.20;99.90;;;;;;5036484;28;20575;-76
2022/08/25 13:03:10;;;;;;;11.40;6.20;;;31.30;99.90;;;;;;5036091;28;20427;-76
2022/08/25 13:05:49;;;;;;;16.83;7.30;;;31.40;99.90;;;;;;5035997;28;20036;-74
2022/08/25 13:08:58;;;;;;;14.48;6.07;;;31.20;99.90;;;;;;5035998;28;20021;-75